Terminal Aerodrome Forecast
Issued by NWS Omaha/Valley, NE

Home | Current Version | Previous Version | Text Only | Print | Product List | Glossary On
Versions: 1 2 3 4 5 6 7 8 9 10 11 12 13 14 15 16 17 18 19 20 21 22 23 24 25 26 27 28 29 30 31 32 33 34 35 36 37
000
FTUS43 KOAX 301120
TAFOMA
TAF
KOMA 301120Z 3012/3112 14005KT P6SM SCT100 BKN250
     FM301600 16010KT P6SM SCT100 BKN250
     FM301900 17011KT P6SM SCT040 SCT250
     FM310300 15010KT P6SM BKN100 PROB30 3106/3112 3SM TSRA
      BKN040CB=

USA.gov is the U.S. government's official web portal to all federal, state and local government web resources and services.